Aviation Digital Data Service (ADDS)

Output produced by METARs form (1436 UTC 24 August 2019)
found at http://www.aviationweather.gov/metar/data/
 
Forecast for: NZQN (QUEENSTOWN , NZ)
Text: TAF NZQN 241110Z 2412/2506 02005KT 9999 SKC
Forecast period: 1200 UTC 24 August 2019 to 0000 UTC 25 August 2019
Forecast type: FROM: standard forecast or significant change
Winds: from the NNE (20 degrees) at 6 MPH (5 knots; 2.6 m/s)
Visibility: 6 or more miles 10+ km)
Clouds: clear skies
Weather: no significant weather forecast for this period
Text: FM250000 26010KT 9999 SCT060
Forecast period: 0000 to 0600 UTC 25 August 2019
Forecast type: FROM: standard forecast or significant change
Winds: from the W (260 degrees) at 12 MPH (10 knots; 5.1 m/s)
Visibility: 6 or more miles 10+ km)
Ceiling: at least 12,000 feet AGL
Clouds: scattered clouds at 6000 feet AGL
Weather: no significant weather forecast for this period